sensor_id;sensor_type;location;lat;lon;timestamp;temperature;humidity
35645;DHT22;21764;52.042;6.830;2022-10-31T00:04:31;13.80;99.90
35645;DHT22;21764;52.042;6.830;2022-10-31T00:09:32;13.80;99.90
35645;DHT22;21764;52.042;6.830;2022-10-31T00:14:32;13.80;99.90
35645;DHT22;21764;52.042;6.830;2022-10-31T00:19:33;13.70;99.90
35645;DHT22;21764;52.042;6.830;2022-10-31T00:24:34;13.60;99.90
35645;DHT22;21764;52.042;6.830;2022-10-31T00:29:34;13.50;99.90
35645;DHT22;21764;52.042;6.830;2022-10-31T00:34:35;13.50;99.90
35645;DHT22;21764;52.042;6.830;2022-10-31T00:39:36;13.60;99.90
35645;DHT22;21764;52.042;6.830;2022-10-31T00:44:36;13.60;99.90
35645;DHT22;21764;52.042;6.830;2022-10-31T00:49:37;13.60;99.90
35645;DHT22;21764;52.042;6.830;2022-10-31T00:54:38;13.50;99.90
35645;DHT22;21764;52.042;6.830;2022-10-31T00:59:38;13.40;99.90
35645;DHT22;21764;52.042;6.830;2022-10-31T01:04:39;13.40;99.90
35645;DHT22;21764;52.042;6.830;2022-10-31T01:09:40;13.40;99.90
35645;DHT22;21764;52.042;6.830;2022-10-31T01:14:47;13.40;99.90
35645;DHT22;21764;52.042;6.830;2022-10-31T01:19:47;13.50;99.90
35645;DHT22;21764;52.042;6.830;2022-10-31T01:24:48;13.50;99.90
35645;DHT22;21764;52.042;6.830;2022-10-31T01:29:49;13.40;99.90
35645;DHT22;21764;52.042;6.830;2022-10-31T01:34:49;13.20;99.90
35645;DHT22;21764;52.042;6.830;2022-10-31T01:39:50;13.10;99.90
35645;DHT22;21764;52.042;6.830;2022-10-31T01:44:52;13.00;99.90
35645;DHT22;21764;52.042;6.830;2022-10-31T01:49:56;13.00;99.90
35645;DHT22;21764;52.042;6.830;2022-10-31T01:55:07;12.90;99.90
35645;DHT22;21764;52.042;6.830;2022-10-31T02:00:10;12.80;99.90
35645;DHT22;21764;52.042;6.830;2022-10-31T02:05:20;12.70;99.90
35645;DHT22;21764;52.042;6.830;2022-10-31T02:10:24;12.80;99.90
35645;DHT22;21764;52.042;6.830;2022-10-31T02:15:25;12.70;99.90
35645;DHT22;21764;52.042;6.830;2022-10-31T02:20:32;12.60;99.90
35645;DHT22;21764;52.042;6.830;2022-10-31T02:26:00;12.50;99.90
35645;DHT22;21764;52.042;6.830;2022-10-31T02:36:54;12.30;99.90
35645;DHT22;21764;52.042;6.830;2022-10-31T02:47:35;12.80;99.90
35645;DHT22;21764;52.042;6.830;2022-10-31T02:52:37;12.60;99.90
35645;DHT22;21764;52.042;6.830;2022-10-31T02:57:40;12.80;99.90
35645;DHT22;21764;52.042;6.830;2022-10-31T03:03:14;12.60;99.90
35645;DHT22;21764;52.042;6.830;2022-10-31T03:08:35;12.50;99.90
35645;DHT22;21764;52.042;6.830;2022-10-31T03:14:00;12.40;99.90
35645;DHT22;21764;52.042;6.830;2022-10-31T03:19:09;12.40;99.90
35645;DHT22;21764;52.042;6.830;2022-10-31T03:24:12;12.30;99.90
35645;DHT22;21764;52.042;6.830;2022-10-31T03:29:16;12.40;99.90
35645;DHT22;21764;52.042;6.830;2022-10-31T03:34:20;12.60;99.90
35645;DHT22;21764;52.042;6.830;2022-10-31T03:39:22;12.70;99.90
35645;DHT22;21764;52.042;6.830;2022-10-31T03:44:23;12.70;99.90
35645;DHT22;21764;52.042;6.830;2022-10-31T03:49:24;12.60;99.90
35645;DHT22;21764;52.042;6.830;2022-10-31T03:54:41;12.50;99.90
35645;DHT22;21764;52.042;6.830;2022-10-31T03:59:44;12.40;99.90
35645;DHT22;21764;52.042;6.830;2022-10-31T04:04:48;12.30;99.90
35645;DHT22;21764;52.042;6.830;2022-10-31T04:09:50;12.20;99.90
35645;DHT22;21764;52.042;6.830;2022-10-31T04:14:53;12.10;99.90
35645;DHT22;21764;52.042;6.830;2022-10-31T04:19:55;12.10;99.90
35645;DHT22;21764;52.042;6.830;2022-10-31T04:24:55;11.90;99.90
35645;DHT22;21764;52.042;6.830;2022-10-31T04:29:56;11.80;99.90
35645;DHT22;21764;52.042;6.830;2022-10-31T04:34:57;11.80;99.90
35645;DHT22;21764;52.042;6.830;2022-10-31T04:39:57;11.90;99.90
35645;DHT22;21764;52.042;6.830;2022-10-31T04:44:58;11.60;99.90
35645;DHT22;21764;52.042;6.830;2022-10-31T04:49:59;11.70;99.90
35645;DHT22;21764;52.042;6.830;2022-10-31T04:55:00;11.90;99.90
35645;DHT22;21764;52.042;6.830;2022-10-31T05:00:00;11.60;99.90
35645;DHT22;21764;52.042;6.830;2022-10-31T05:05:01;11.60;99.90
35645;DHT22;21764;52.042;6.830;2022-10-31T05:10:04;11.70;99.90
35645;DHT22;21764;52.042;6.830;2022-10-31T05:15:05;11.20;99.90
35645;DHT22;21764;52.042;6.830;2022-10-31T05:20:06;11.00;99.90
35645;DHT22;21764;52.042;6.830;2022-10-31T05:25:07;11.00;99.90
35645;DHT22;21764;52.042;6.830;2022-10-31T05:30:09;10.90;99.90
35645;DHT22;21764;52.042;6.830;2022-10-31T05:35:15;10.90;99.90
35645;DHT22;21764;52.042;6.830;2022-10-31T05:40:18;11.00;99.90
35645;DHT22;21764;52.042;6.830;2022-10-31T05:45:20;10.90;99.90
35645;DHT22;21764;52.042;6.830;2022-10-31T05:50:21;11.00;99.90
35645;DHT22;21764;52.042;6.830;2022-10-31T05:55:22;11.20;99.90
35645;DHT22;21764;52.042;6.830;2022-10-31T06:00:25;11.00;99.90
35645;DHT22;21764;52.042;6.830;2022-10-31T06:05:26;10.80;99.90
35645;DHT22;21764;52.042;6.830;2022-10-31T06:10:27;10.80;99.90
35645;DHT22;21764;52.042;6.830;2022-10-31T06:15:28;10.60;99.90
35645;DHT22;21764;52.042;6.830;2022-10-31T06:20:29;10.60;99.90
35645;DHT22;21764;52.042;6.830;2022-10-31T06:25:30;10.80;99.90
35645;DHT22;21764;52.042;6.830;2022-10-31T06:30:31;10.80;99.90
35645;DHT22;21764;52.042;6.830;2022-10-31T06:35:32;10.90;99.90
35645;DHT22;21764;52.042;6.830;2022-10-31T06:40:33;11.00;99.90
35645;DHT22;21764;52.042;6.830;2022-10-31T06:45:34;11.20;99.90
35645;DHT22;21764;52.042;6.830;2022-10-31T06:50:34;11.20;99.90
35645;DHT22;21764;52.042;6.830;2022-10-31T06:55:35;11.10;99.90
35645;DHT22;21764;52.042;6.830;2022-10-31T07:00:36;11.30;99.90
35645;DHT22;21764;52.042;6.830;2022-10-31T07:05:37;11.60;99.90
35645;DHT22;21764;52.042;6.830;2022-10-31T07:10:40;11.50;99.90
35645;DHT22;21764;52.042;6.830;2022-10-31T07:15:42;11.50;99.90
35645;DHT22;21764;52.042;6.830;2022-10-31T07:20:43;11.70;99.90
35645;DHT22;21764;52.042;6.830;2022-10-31T07:25:44;12.10;99.90
35645;DHT22;21764;52.042;6.830;2022-10-31T07:30:52;12.10;99.90
35645;DHT22;21764;52.042;6.830;2022-10-31T07:35:54;12.10;99.90
35645;DHT22;21764;52.042;6.830;2022-10-31T07:40:56;12.70;99.90
35645;DHT22;21764;52.042;6.830;2022-10-31T07:45:57;12.60;99.90
35645;DHT22;21764;52.042;6.830;2022-10-31T07:50:58;12.60;99.90
35645;DHT22;21764;52.042;6.830;2022-10-31T07:55:59;13.00;99.90
35645;DHT22;21764;52.042;6.830;2022-10-31T08:00:59;14.50;99.90
35645;DHT22;21764;52.042;6.830;2022-10-31T08:06:00;16.90;99.90
35645;DHT22;21764;52.042;6.830;2022-10-31T08:11:01;17.80;99.90
35645;DHT22;21764;52.042;6.830;2022-10-31T08:16:01;18.50;99.90
35645;DHT22;21764;52.042;6.830;2022-10-31T08:21:04;19.30;99.90
35645;DHT22;21764;52.042;6.830;2022-10-31T08:26:05;19.80;99.90
35645;DHT22;21764;52.042;6.830;2022-10-31T08:31:06;20.40;99.90
35645;DHT22;21764;52.042;6.830;2022-10-31T08:36:07;20.90;99.90
35645;DHT22;21764;52.042;6.830;2022-10-31T08:41:08;22.60;99.90
35645;DHT22;21764;52.042;6.830;2022-10-31T08:46:09;22.50;99.90
35645;DHT22;21764;52.042;6.830;2022-10-31T08:51:10;20.50;99.90
35645;DHT22;21764;52.042;6.830;2022-10-31T08:56:10;21.50;99.90
35645;DHT22;21764;52.042;6.830;2022-10-31T09:01:11;20.20;99.90
35645;DHT22;21764;52.042;6.830;2022-10-31T09:06:12;22.80;99.90
35645;DHT22;21764;52.042;6.830;2022-10-31T09:11:12;24.20;99.90
35645;DHT22;21764;52.042;6.830;2022-10-31T09:16:13;25.20;99.90
35645;DHT22;21764;52.042;6.830;2022-10-31T09:21:14;26.60;99.90
35645;DHT22;21764;52.042;6.830;2022-10-31T09:26:14;24.70;99.90
35645;DHT22;21764;52.042;6.830;2022-10-31T09:31:15;24.20;99.90
35645;DHT22;21764;52.042;6.830;2022-10-31T09:36:16;22.40;99.90
35645;DHT22;21764;52.042;6.830;2022-10-31T09:46:57;23.50;99.90
35645;DHT22;21764;52.042;6.830;2022-10-31T09:52:35;23.80;99.90
35645;DHT22;21764;52.042;6.830;2022-10-31T09:57:36;23.70;99.90
35645;DHT22;21764;52.042;6.830;2022-10-31T10:03:06;24.60;99.90
35645;DHT22;21764;52.042;6.830;2022-10-31T10:08:18;21.40;99.90
35645;DHT22;21764;52.042;6.830;2022-10-31T10:19:07;21.40;99.90
35645;DHT22;21764;52.042;6.830;2022-10-31T10:29:47;19.80;99.90
35645;DHT22;21764;52.042;6.830;2022-10-31T10:40:24;18.60;99.90
35645;DHT22;21764;52.042;6.830;2022-10-31T10:45:26;18.60;99.90
35645;DHT22;21764;52.042;6.830;2022-10-31T10:50:49;18.30;99.90
35645;DHT22;21764;52.042;6.830;2022-10-31T10:56:00;18.00;99.90
35645;DHT22;21764;52.042;6.830;2022-10-31T11:01:14;17.80;99.90
35645;DHT22;21764;52.042;6.830;2022-10-31T11:06:23;18.40;99.90
35645;DHT22;21764;52.042;6.830;2022-10-31T11:11:28;18.20;99.90
35645;DHT22;21764;52.042;6.830;2022-10-31T11:16:37;18.20;99.90
35645;DHT22;21764;52.042;6.830;2022-10-31T11:21:40;18.00;99.90
35645;DHT22;21764;52.042;6.830;2022-10-31T11:26:42;17.90;99.90
35645;DHT22;21764;52.042;6.830;2022-10-31T11:31:44;17.90;99.90
35645;DHT22;21764;52.042;6.830;2022-10-31T11:36:46;18.20;99.90
35645;DHT22;21764;52.042;6.830;2022-10-31T11:41:48;18.10;99.90
35645;DHT22;21764;52.042;6.830;2022-10-31T11:46:56;18.10;99.90
35645;DHT22;21764;52.042;6.830;2022-10-31T11:52:05;18.10;99.90
35645;DHT22;21764;52.042;6.830;2022-10-31T12:02:27;18.50;99.90
35645;DHT22;21764;52.042;6.830;2022-10-31T12:07:28;18.40;99.90
35645;DHT22;21764;52.042;6.830;2022-10-31T12:12:34;17.90;99.90
35645;DHT22;21764;52.042;6.830;2022-10-31T12:44:44;17.80;99.90
35645;DHT22;21764;52.042;6.830;2022-10-31T12:49:57;17.70;99.90
35645;DHT22;21764;52.042;6.830;2022-10-31T12:55:03;17.70;99.90
35645;DHT22;21764;52.042;6.830;2022-10-31T13:00:14;17.60;99.90
35645;DHT22;21764;52.042;6.830;2022-10-31T13:05:33;17.80;99.90
35645;DHT22;21764;52.042;6.830;2022-10-31T13:15:50;17.80;99.90
35645;DHT22;21764;52.042;6.830;2022-10-31T13:20:53;17.60;99.90
35645;DHT22;21764;52.042;6.830;2022-10-31T13:25:57;17.80;99.90
35645;DHT22;21764;52.042;6.830;2022-10-31T13:30:59;17.80;99.90
35645;DHT22;21764;52.042;6.830;2022-10-31T13:51:33;17.20;99.90
35645;DHT22;21764;52.042;6.830;2022-10-31T13:56:35;17.20;99.90
35645;DHT22;21764;52.042;6.830;2022-10-31T14:01:56;17.20;99.90
35645;DHT22;21764;52.042;6.830;2022-10-31T14:07:12;17.20;99.90
35645;DHT22;21764;52.042;6.830;2022-10-31T14:12:29;17.30;99.90
35645;DHT22;21764;52.042;6.830;2022-10-31T14:17:38;17.00;99.90
35645;DHT22;21764;52.042;6.830;2022-10-31T14:22:40;16.90;99.90
35645;DHT22;21764;52.042;6.830;2022-10-31T14:27:46;17.00;99.90
35645;DHT22;21764;52.042;6.830;2022-10-31T14:33:00;16.90;99.90
35645;DHT22;21764;52.042;6.830;2022-10-31T14:38:37;16.90;99.90
35645;DHT22;21764;52.042;6.830;2022-10-31T14:43:42;16.90;99.90
35645;DHT22;21764;52.042;6.830;2022-10-31T14:54:32;17.00;99.90
35645;DHT22;21764;52.042;6.830;2022-10-31T14:59:37;16.90;99.90
35645;DHT22;21764;52.042;6.830;2022-10-31T15:04:39;16.80;99.90
35645;DHT22;21764;52.042;6.830;2022-10-31T15:09:41;16.70;99.90
35645;DHT22;21764;52.042;6.830;2022-10-31T15:14:43;16.70;99.90
35645;DHT22;21764;52.042;6.830;2022-10-31T15:19:44;16.60;99.90
35645;DHT22;21764;52.042;6.830;2022-10-31T15:24:45;16.50;99.90
35645;DHT22;21764;52.042;6.830;2022-10-31T15:29:52;16.50;99.90
35645;DHT22;21764;52.042;6.830;2022-10-31T15:34:55;16.50;99.90
35645;DHT22;21764;52.042;6.830;2022-10-31T15:40:07;16.50;99.90
35645;DHT22;21764;52.042;6.830;2022-10-31T15:50:23;16.40;99.90
35645;DHT22;21764;52.042;6.830;2022-10-31T15:55:27;16.30;99.90
35645;DHT22;21764;52.042;6.830;2022-10-31T16:00:33;16.20;99.90
35645;DHT22;21764;52.042;6.830;2022-10-31T16:05:46;16.20;99.90
35645;DHT22;21764;52.042;6.830;2022-10-31T16:10:47;16.30;99.90
35645;DHT22;21764;52.042;6.830;2022-10-31T16:15:58;16.40;99.90
35645;DHT22;21764;52.042;6.830;2022-10-31T16:20:59;16.30;99.90
35645;DHT22;21764;52.042;6.830;2022-10-31T16:26:05;16.30;99.90
35645;DHT22;21764;52.042;6.830;2022-10-31T16:31:13;16.20;99.90
35645;DHT22;21764;52.042;6.830;2022-10-31T16:36:32;16.30;99.90
35645;DHT22;21764;52.042;6.830;2022-10-31T16:41:38;16.20;99.90
35645;DHT22;21764;52.042;6.830;2022-10-31T16:46:40;16.20;99.90
35645;DHT22;21764;52.042;6.830;2022-10-31T16:51:41;16.30;99.90
35645;DHT22;21764;52.042;6.830;2022-10-31T16:56:42;16.20;99.90
35645;DHT22;21764;52.042;6.830;2022-10-31T17:01:47;16.30;99.90
35645;DHT22;21764;52.042;6.830;2022-10-31T17:06:48;16.20;99.90
35645;DHT22;21764;52.042;6.830;2022-10-31T17:11:50;16.10;99.90
35645;DHT22;21764;52.042;6.830;2022-10-31T17:16:52;15.90;99.90
35645;DHT22;21764;52.042;6.830;2022-10-31T17:21:53;16.00;99.90
35645;DHT22;21764;52.042;6.830;2022-10-31T17:26:53;16.20;99.90
35645;DHT22;21764;52.042;6.830;2022-10-31T17:31:54;16.20;99.90
35645;DHT22;21764;52.042;6.830;2022-10-31T17:36:56;16.30;99.90
35645;DHT22;21764;52.042;6.830;2022-10-31T17:41:56;16.30;99.90
35645;DHT22;21764;52.042;6.830;2022-10-31T17:46:57;16.20;99.90
35645;DHT22;21764;52.042;6.830;2022-10-31T17:52:02;16.30;99.90
35645;DHT22;21764;52.042;6.830;2022-10-31T17:57:03;16.30;99.90
35645;DHT22;21764;52.042;6.830;2022-10-31T18:02:03;16.30;99.90
35645;DHT22;21764;52.042;6.830;2022-10-31T18:07:08;16.40;99.90
35645;DHT22;21764;52.042;6.830;2022-10-31T18:12:09;16.40;99.90
35645;DHT22;21764;52.042;6.830;2022-10-31T18:17:09;16.40;99.90
35645;DHT22;21764;52.042;6.830;2022-10-31T18:22:16;16.40;99.90
35645;DHT22;21764;52.042;6.830;2022-10-31T18:27:20;16.40;99.90
35645;DHT22;21764;52.042;6.830;2022-10-31T18:32:22;16.30;99.90
35645;DHT22;21764;52.042;6.830;2022-10-31T18:37:23;16.40;99.90
35645;DHT22;21764;52.042;6.830;2022-10-31T18:42:25;16.30;99.90
35645;DHT22;21764;52.042;6.830;2022-10-31T18:47:25;16.20;99.90
35645;DHT22;21764;52.042;6.830;2022-10-31T18:52:26;16.10;99.90
35645;DHT22;21764;52.042;6.830;2022-10-31T18:57:26;16.20;99.90
35645;DHT22;21764;52.042;6.830;2022-10-31T19:02:27;16.30;99.90
35645;DHT22;21764;52.042;6.830;2022-10-31T19:07:28;16.20;99.90
35645;DHT22;21764;52.042;6.830;2022-10-31T19:12:31;16.20;99.90
35645;DHT22;21764;52.042;6.830;2022-10-31T19:17:32;16.00;99.90
35645;DHT22;21764;52.042;6.830;2022-10-31T19:22:32;16.00;99.90
35645;DHT22;21764;52.042;6.830;2022-10-31T19:27:33;15.90;99.90
35645;DHT22;21764;52.042;6.830;2022-10-31T19:32:34;15.80;99.90
35645;DHT22;21764;52.042;6.830;2022-10-31T19:37:35;15.70;99.90
35645;DHT22;21764;52.042;6.830;2022-10-31T19:42:36;15.70;99.90
35645;DHT22;21764;52.042;6.830;2022-10-31T19:47:36;15.60;99.90
35645;DHT22;21764;52.042;6.830;2022-10-31T19:52:37;15.50;99.90
35645;DHT22;21764;52.042;6.830;2022-10-31T19:57:39;15.40;99.90
35645;DHT22;21764;52.042;6.830;2022-10-31T20:02:43;15.50;99.90
35645;DHT22;21764;52.042;6.830;2022-10-31T20:07:44;15.30;99.90
35645;DHT22;21764;52.042;6.830;2022-10-31T20:12:44;15.40;99.90
35645;DHT22;21764;52.042;6.830;2022-10-31T20:17:48;15.30;99.90
35645;DHT22;21764;52.042;6.830;2022-10-31T20:22:49;15.40;99.90
35645;DHT22;21764;52.042;6.830;2022-10-31T20:27:50;15.40;99.90
35645;DHT22;21764;52.042;6.830;2022-10-31T20:32:50;15.50;99.90
35645;DHT22;21764;52.042;6.830;2022-10-31T20:37:51;15.50;99.90
35645;DHT22;21764;52.042;6.830;2022-10-31T20:42:51;15.60;99.90
35645;DHT22;21764;52.042;6.830;2022-10-31T20:47:53;15.60;99.90
35645;DHT22;21764;52.042;6.830;2022-10-31T20:52:56;15.70;99.90
35645;DHT22;21764;52.042;6.830;2022-10-31T20:57:57;15.60;99.90
35645;DHT22;21764;52.042;6.830;2022-10-31T21:02:58;15.50;99.90
35645;DHT22;21764;52.042;6.830;2022-10-31T21:07:59;15.60;99.90
35645;DHT22;21764;52.042;6.830;2022-10-31T21:13:00;15.40;99.90
35645;DHT22;21764;52.042;6.830;2022-10-31T21:18:00;15.30;99.90
35645;DHT22;21764;52.042;6.830;2022-10-31T21:23:01;15.20;99.90
35645;DHT22;21764;52.042;6.830;2022-10-31T21:28:02;15.20;99.90
35645;DHT22;21764;52.042;6.830;2022-10-31T21:33:03;15.20;99.90
35645;DHT22;21764;52.042;6.830;2022-10-31T21:38:03;15.00;99.90
35645;DHT22;21764;52.042;6.830;2022-10-31T21:43:04;15.00;99.90
35645;DHT22;21764;52.042;6.830;2022-10-31T21:48:05;15.00;99.90
35645;DHT22;21764;52.042;6.830;2022-10-31T21:53:06;15.00;99.90
35645;DHT22;21764;52.042;6.830;2022-10-31T21:58:25;15.10;99.90
35645;DHT22;21764;52.042;6.830;2022-10-31T22:03:25;15.00;99.90
35645;DHT22;21764;52.042;6.830;2022-10-31T22:08:27;15.00;99.90
35645;DHT22;21764;52.042;6.830;2022-10-31T22:13:32;15.00;99.90
35645;DHT22;21764;52.042;6.830;2022-10-31T22:18:33;15.00;99.90
35645;DHT22;21764;52.042;6.830;2022-10-31T22:23:34;15.00;99.90
35645;DHT22;21764;52.042;6.830;2022-10-31T22:28:35;14.90;99.90
35645;DHT22;21764;52.042;6.830;2022-10-31T22:33:36;15.00;99.90
35645;DHT22;21764;52.042;6.830;2022-10-31T22:38:38;14.90;99.90
35645;DHT22;21764;52.042;6.830;2022-10-31T22:43:40;14.90;99.90
35645;DHT22;21764;52.042;6.830;2022-10-31T22:48:43;14.90;99.90
35645;DHT22;21764;52.042;6.830;2022-10-31T22:53:44;14.90;99.90
35645;DHT22;21764;52.042;6.830;2022-10-31T22:58:46;15.00;99.90
35645;DHT22;21764;52.042;6.830;2022-10-31T23:03:47;15.00;99.90
35645;DHT22;21764;52.042;6.830;2022-10-31T23:08:48;15.00;99.90
35645;DHT22;21764;52.042;6.830;2022-10-31T23:13:52;14.90;99.90
35645;DHT22;21764;52.042;6.830;2022-10-31T23:19:23;14.90;99.90
35645;DHT22;21764;52.042;6.830;2022-10-31T23:24:43;14.90;99.90
35645;DHT22;21764;52.042;6.830;2022-10-31T23:29:49;14.90;99.90
35645;DHT22;21764;52.042;6.830;2022-10-31T23:34:53;14.80;99.90
35645;DHT22;21764;52.042;6.830;2022-10-31T23:39:55;14.80;99.90
35645;DHT22;21764;52.042;6.830;2022-10-31T23:44:56;14.80;99.90
35645;DHT22;21764;52.042;6.830;2022-10-31T23:49:56;14.80;99.90
35645;DHT22;21764;52.042;6.830;2022-10-31T23:54:57;14.90;99.90
35645;DHT22;21764;52.042;6.830;2022-10-31T23:59:59;15.00;99.90
